createdAt,value
2019-05-07T00:01:18.204Z,21.03
2019-05-07T00:03:47.457Z,24.50
2019-05-07T00:06:17.065Z,19.07
2019-05-07T00:08:46.332Z,20.20
2019-05-07T00:11:15.653Z,18.47
2019-05-07T00:13:44.923Z,25.23
2019-05-07T00:16:14.173Z,19.90
2019-05-07T00:18:43.657Z,22.60
2019-05-07T00:21:12.926Z,22.07
2019-05-07T00:23:43.282Z,23.97
2019-05-07T00:26:13.554Z,22.90
2019-05-07T00:28:43.420Z,23.40
2019-05-07T00:31:13.232Z,24.90
2019-05-07T00:33:43.323Z,21.77
2019-05-07T00:36:26.161Z,19.00
2019-05-07T00:39:04.007Z,21.40
2019-05-07T00:41:42.835Z,27.30
2019-05-07T00:44:13.664Z,26.17
2019-05-07T00:46:43.225Z,22.50
2019-05-07T00:49:12.739Z,24.27
2019-05-07T00:51:42.505Z,23.13
2019-05-07T00:54:12.357Z,22.67
2019-05-07T00:56:42.862Z,22.60
2019-05-07T00:59:13.095Z,23.30
2019-05-07T01:01:43.368Z,24.30
2019-05-07T01:04:12.715Z,24.57
2019-05-07T01:06:42.468Z,27.63
2019-05-07T01:09:12.414Z,26.63
2019-05-07T01:11:42.982Z,24.23
2019-05-07T01:14:12.477Z,26.27
2019-05-07T01:16:42.202Z,27.87
2019-05-07T01:19:12.585Z,25.33
2019-05-07T01:21:43.313Z,25.27
2019-05-07T01:24:12.756Z,24.63
2019-05-07T01:26:42.694Z,23.80
2019-05-07T01:29:12.857Z,21.70
2019-05-07T01:31:57.214Z,25.00
2019-05-07T01:34:57.549Z,24.33
2019-05-07T01:37:27.168Z,23.87
2019-05-07T01:39:56.786Z,22.70
2019-05-07T01:42:26.066Z,24.00
2019-05-07T01:44:55.322Z,27.50
2019-05-07T01:47:24.537Z,22.03
2019-05-07T01:49:55.150Z,21.90
2019-05-07T01:52:24.601Z,27.20
2019-05-07T01:54:53.826Z,23.27
2019-05-07T01:57:23.381Z,29.60
2019-05-07T01:59:52.842Z,22.43
2019-05-07T02:02:38.380Z,24.87
2019-05-07T02:05:16.519Z,24.27
2019-05-07T02:07:52.131Z,20.37
2019-05-07T02:10:32.084Z,20.07
2019-05-07T02:13:02.293Z,21.73
2019-05-07T02:15:32.292Z,23.50
2019-05-07T02:18:02.065Z,23.13
2019-05-07T02:20:32.119Z,24.40
2019-05-07T02:23:02.821Z,22.50
2019-05-07T02:25:32.771Z,29.77
2019-05-07T02:28:02.406Z,26.03
2019-05-07T02:30:35.096Z,22.37
2019-05-07T02:33:03.761Z,27.17
2019-05-07T02:35:33.766Z,23.00
2019-05-07T02:38:13.756Z,23.43
2019-05-07T02:40:47.913Z,23.00
2019-05-07T02:43:17.363Z,23.50
2019-05-07T02:45:53.613Z,23.17
2019-05-07T02:48:25.686Z,22.23
2019-05-07T02:51:13.394Z,23.97
2019-05-07T02:53:53.515Z,25.37
2019-05-07T02:56:23.620Z,21.20
2019-05-07T02:58:52.836Z,28.13
2019-05-07T03:01:22.831Z,27.37
2019-05-07T03:03:52.990Z,26.37
2019-05-07T03:06:23.490Z,25.47
2019-05-07T03:08:53.587Z,24.87
2019-05-07T03:11:23.052Z,22.63
2019-05-07T03:13:53.736Z,24.13
2019-05-07T03:16:38.085Z,24.37
2019-05-07T03:18:54.208Z,35.50
2019-05-07T03:21:23.881Z,25.27
2019-05-07T03:24:13.815Z,25.23
2019-05-07T03:26:45.486Z,28.13
2019-05-07T03:29:19.827Z,26.43
2019-05-07T03:32:08.054Z,25.03
2019-05-07T03:34:57.827Z,21.90
2019-05-07T03:37:32.237Z,27.13
2019-05-07T03:39:59.249Z,26.87
2019-05-07T03:42:33.180Z,26.03
2019-05-07T03:45:29.412Z,30.10
2019-05-07T03:48:13.597Z,24.63
2019-05-07T03:50:43.186Z,25.93
2019-05-07T03:53:14.342Z,33.50
2019-05-07T03:55:44.789Z,25.70
2019-05-07T03:58:14.706Z,22.03
2019-05-07T04:00:45.161Z,25.10
2019-05-07T04:03:19.014Z,26.07
2019-05-07T04:05:45.443Z,25.13
2019-05-07T04:08:14.639Z,27.47
2019-05-07T04:10:44.538Z,26.20
2019-05-07T04:13:14.044Z,26.67
2019-05-07T04:15:44.179Z,27.37
2019-05-07T04:18:14.130Z,26.07
2019-05-07T04:20:44.025Z,27.37
2019-05-07T04:23:14.228Z,28.40
2019-05-07T04:26:05.484Z,31.47
2019-05-07T04:28:54.360Z,32.90
2019-05-07T04:31:25.472Z,22.17
2019-05-07T04:33:56.830Z,28.47
2019-05-07T04:36:28.504Z,25.77
2019-05-07T04:38:57.651Z,30.73
2019-05-07T04:41:26.821Z,25.77
2019-05-07T04:43:56.667Z,24.70
2019-05-07T04:46:26.265Z,27.17
2019-05-07T04:48:55.567Z,26.20
2019-05-07T04:51:33.565Z,23.23
2019-05-07T04:54:03.734Z,29.47
2019-05-07T04:56:34.141Z,30.13
2019-05-07T04:59:03.909Z,29.37
2019-05-07T05:01:35.869Z,29.93
2019-05-07T05:04:24.224Z,30.27
2019-05-07T05:06:36.359Z,26.40
2019-05-07T05:09:07.112Z,25.70
2019-05-07T05:11:36.404Z,27.07
2019-05-07T05:14:07.976Z,24.37
2019-05-07T05:16:36.911Z,25.00
2019-05-07T05:19:06.075Z,25.03
2019-05-07T05:22:01.996Z,24.33
2019-05-07T05:24:34.749Z,28.23
2019-05-07T05:27:04.502Z,26.27
2019-05-07T05:29:35.189Z,21.97
2019-05-07T05:32:04.498Z,19.27
2019-05-07T05:34:33.711Z,25.33
2019-05-07T05:37:03.313Z,21.83
2019-05-07T05:39:32.569Z,28.87
2019-05-07T05:42:23.808Z,30.43
2019-05-07T05:44:53.147Z,25.43
2019-05-07T05:47:22.375Z,26.13
2019-05-07T05:49:53.407Z,31.33
2019-05-07T05:52:36.008Z,26.63
2019-05-07T05:55:12.105Z,21.60
2019-05-07T05:57:54.537Z,28.47
2019-05-07T06:00:42.269Z,24.77
2019-05-07T06:03:24.309Z,29.57
2019-05-07T06:05:58.858Z,21.53
2019-05-07T06:08:53.105Z,22.17
2019-05-07T06:11:40.281Z,27.27
2019-05-07T06:14:27.690Z,22.20
2019-05-07T06:17:06.376Z,18.30
2019-05-07T06:20:07.104Z,27.93
2019-05-07T06:23:07.342Z,18.77
2019-05-07T06:25:36.972Z,31.17
2019-05-07T06:28:06.434Z,19.20
2019-05-07T06:30:35.780Z,26.67
2019-05-07T06:33:05.409Z,21.53
2019-05-07T06:35:34.605Z,18.10
2019-05-07T06:38:05.169Z,25.20
2019-05-07T06:40:51.795Z,26.23
2019-05-07T06:43:28.250Z,19.90
2019-05-07T06:45:58.784Z,25.60
2019-05-07T06:48:39.175Z,22.77
2019-05-07T06:50:59.334Z,22.40
2019-05-07T06:53:30.168Z,19.63
2019-05-07T06:56:02.762Z,23.20
2019-05-07T06:58:45.861Z,17.63
2019-05-07T07:01:32.735Z,23.07
2019-05-07T07:04:15.587Z,20.73
2019-05-07T07:07:26.112Z,19.43
2019-05-07T07:10:06.068Z,20.53
2019-05-07T07:12:35.307Z,20.00
2019-05-07T07:15:05.215Z,18.10
2019-05-07T07:17:34.470Z,25.93
2019-05-07T07:20:15.696Z,20.87
2019-05-07T07:22:44.881Z,17.10
2019-05-07T07:25:14.121Z,17.30
2019-05-07T07:27:43.310Z,15.73
2019-05-07T07:30:32.484Z,17.07
2019-05-07T07:33:04.167Z,18.40
2019-05-07T07:35:34.109Z,18.43
2019-05-07T07:38:22.764Z,20.07
2019-05-07T07:40:58.939Z,17.20
2019-05-07T07:43:28.563Z,18.30
2019-05-07T07:45:57.877Z,18.77
2019-05-07T07:48:28.340Z,19.07
2019-05-07T07:50:57.735Z,16.83
2019-05-07T07:53:27.435Z,24.83
2019-05-07T07:56:14.431Z,13.87
2019-05-07T07:59:02.027Z,18.13
2019-05-07T08:01:53.321Z,16.40
2019-05-07T08:04:22.928Z,20.27
2019-05-07T08:07:03.035Z,15.80
2019-05-07T08:09:33.781Z,19.37
2019-05-07T08:12:03.472Z,15.50
2019-05-07T08:14:32.889Z,13.53
2019-05-07T08:17:04.159Z,19.60
2019-05-07T08:19:33.321Z,12.43
2019-05-07T08:22:03.008Z,15.50
2019-05-07T08:24:32.430Z,12.23
2019-05-07T08:27:02.587Z,11.17
2019-05-07T08:29:32.823Z,13.00
2019-05-07T08:32:27.065Z,10.13
2019-05-07T08:35:02.381Z,14.20
2019-05-07T08:37:32.357Z,9.43
2019-05-07T08:40:03.112Z,10.10
2019-05-07T08:42:32.563Z,14.53
2019-05-07T08:45:24.926Z,8.70
2019-05-07T08:47:55.826Z,10.87
2019-05-07T08:50:27.041Z,10.40
2019-05-07T08:52:56.094Z,9.07
2019-05-07T08:55:25.604Z,11.93
2019-05-07T08:57:54.953Z,9.97
2019-05-07T09:00:24.490Z,14.87
2019-05-07T09:02:53.742Z,9.40
2019-05-07T09:05:22.916Z,10.40
2019-05-07T09:07:52.733Z,12.73
2019-05-07T09:10:21.950Z,11.90
2019-05-07T09:12:52.593Z,12.20
2019-05-07T09:15:22.691Z,10.10
2019-05-07T09:17:52.670Z,11.03
2019-05-07T09:20:22.821Z,8.37
2019-05-07T09:22:52.281Z,7.77
2019-05-07T09:25:22.257Z,9.23
2019-05-07T09:27:53.257Z,8.47
2019-05-07T09:30:47.588Z,9.67
2019-05-07T09:33:25.017Z,9.27
2019-05-07T09:35:56.042Z,10.57
2019-05-07T09:38:25.352Z,9.00
2019-05-07T09:40:57.007Z,9.87
2019-05-07T09:43:25.803Z,7.30
2019-05-07T09:45:55.084Z,13.53
2019-05-07T09:48:24.261Z,8.63
2019-05-07T09:50:53.587Z,9.57
2019-05-07T09:53:22.927Z,10.37
2019-05-07T09:55:52.224Z,8.43
2019-05-07T09:58:34.923Z,9.63
2019-05-07T10:00:52.656Z,8.27
2019-05-07T10:03:22.788Z,9.40
2019-05-07T10:05:52.363Z,8.07
2019-05-07T10:08:21.528Z,10.20
2019-05-07T10:10:53.133Z,12.13
2019-05-07T10:13:36.285Z,7.77
2019-05-07T10:16:07.696Z,8.17
2019-05-07T10:18:36.642Z,10.20
2019-05-07T10:21:05.815Z,8.10
2019-05-07T10:23:35.757Z,11.83
2019-05-07T10:26:06.116Z,15.60
2019-05-07T10:28:35.349Z,6.83
2019-05-07T10:31:04.635Z,8.00
2019-05-07T10:33:34.130Z,8.00
2019-05-07T10:36:03.450Z,7.40
2019-05-07T10:38:32.682Z,5.93
2019-05-07T10:41:02.850Z,8.70
2019-05-07T10:43:32.827Z,7.57
2019-05-07T10:46:33.304Z,9.30
2019-05-07T10:49:09.296Z,13.97
2019-05-07T10:51:38.886Z,9.03
2019-05-07T10:54:08.378Z,8.63
2019-05-07T10:56:37.617Z,9.77
2019-05-07T10:59:06.823Z,13.43
2019-05-07T11:01:48.040Z,11.57
2019-05-07T11:04:17.260Z,14.40
2019-05-07T11:06:46.536Z,12.33
2019-05-07T11:09:16.172Z,10.23
2019-05-07T11:11:45.325Z,8.90
2019-05-07T11:14:14.492Z,10.60
2019-05-07T11:16:52.048Z,11.43
2019-05-07T11:19:22.101Z,12.03
2019-05-07T11:21:52.116Z,12.87
2019-05-07T11:24:21.553Z,8.73
2019-05-07T11:26:50.778Z,12.00
2019-05-07T11:29:22.057Z,11.83
2019-05-07T11:31:52.520Z,11.40
2019-05-07T11:34:22.132Z,12.00
2019-05-07T11:36:52.467Z,10.40
2019-05-07T11:39:22.658Z,11.23
2019-05-07T11:42:16.827Z,12.37
2019-05-07T11:44:46.058Z,17.00
2019-05-07T11:47:24.453Z,9.33
2019-05-07T11:50:14.659Z,13.23
2019-05-07T11:52:46.906Z,12.83
2019-05-07T11:55:16.074Z,15.87
2019-05-07T11:57:49.391Z,12.63
2019-05-07T12:00:39.942Z,17.37
2019-05-07T12:03:09.312Z,14.20
2019-05-07T12:05:38.589Z,12.90
2019-05-07T12:08:08.302Z,10.13
2019-05-07T12:10:37.477Z,12.50
2019-05-07T12:13:06.660Z,13.73
2019-05-07T12:15:35.925Z,12.67
2019-05-07T12:18:05.267Z,11.90
2019-05-07T12:20:34.594Z,14.43
2019-05-07T12:23:04.238Z,17.13
2019-05-07T12:25:33.788Z,14.70
2019-05-07T12:28:03.062Z,15.70
2019-05-07T12:30:54.550Z,15.23
2019-05-07T12:34:02.564Z,10.40
2019-05-07T12:36:34.177Z,12.97
2019-05-07T12:39:05.310Z,11.90
2019-05-07T12:41:34.819Z,11.40
2019-05-07T12:44:07.025Z,13.57
2019-05-07T12:46:38.162Z,17.03
2019-05-07T12:49:07.901Z,17.30
2019-05-07T12:51:52.235Z,20.70
2019-05-07T12:54:43.197Z,16.77
2019-05-07T12:57:12.491Z,13.53
2019-05-07T12:59:42.605Z,19.20
2019-05-07T13:02:40.930Z,16.17
2019-05-07T13:05:07.119Z,17.27
2019-05-07T13:07:49.436Z,14.63
2019-05-07T13:10:21.925Z,14.47
2019-05-07T13:12:52.646Z,14.57
2019-05-07T13:15:27.682Z,13.57
2019-05-07T13:18:02.801Z,15.10
2019-05-07T13:20:32.510Z,18.33
2019-05-07T13:23:01.835Z,17.30
2019-05-07T13:25:33.171Z,8.70
2019-05-07T13:28:02.727Z,10.50
2019-05-07T13:30:32.452Z,11.80
2019-05-07T13:33:03.263Z,9.50
2019-05-07T13:35:32.843Z,13.53
2019-05-07T13:38:23.714Z,9.03
2019-05-07T13:41:13.867Z,12.97
2019-05-07T13:44:18.196Z,14.63
2019-05-07T13:46:49.250Z,11.43
2019-05-07T13:49:19.039Z,10.23
2019-05-07T13:52:01.099Z,11.20
2019-05-07T13:54:21.809Z,10.50
2019-05-07T13:56:52.509Z,13.90
2019-05-07T13:59:22.448Z,11.17
2019-05-07T14:02:05.343Z,14.77
2019-05-07T14:04:35.547Z,17.37
2019-05-07T14:07:04.986Z,14.77
2019-05-07T14:09:37.340Z,12.63
2019-05-07T14:12:06.925Z,11.63
2019-05-07T14:14:36.498Z,15.17
2019-05-07T14:17:06.903Z,11.53
2019-05-07T14:19:36.307Z,14.23
2019-05-07T14:22:15.279Z,15.37
2019-05-07T14:24:37.109Z,12.20
2019-05-07T14:27:06.557Z,16.53
2019-05-07T14:29:35.803Z,14.90
2019-05-07T14:32:18.785Z,17.03
2019-05-07T14:35:08.859Z,13.07
2019-05-07T14:37:41.933Z,14.67
2019-05-07T14:40:13.055Z,15.83
2019-05-07T14:42:47.553Z,13.40
2019-05-07T14:45:17.413Z,14.80
2019-05-07T14:47:47.209Z,12.10
2019-05-07T14:50:16.910Z,14.40
2019-05-07T14:52:46.299Z,11.93
2019-05-07T14:55:15.874Z,14.50
2019-05-07T14:57:45.654Z,12.43
2019-05-07T15:00:15.453Z,13.77
2019-05-07T15:02:44.969Z,11.93
2019-05-07T15:05:14.368Z,12.97
2019-05-07T15:07:43.686Z,15.73
2019-05-07T15:10:13.319Z,13.40
2019-05-07T15:12:43.303Z,12.03
2019-05-07T15:15:12.753Z,14.60
2019-05-07T15:17:48.143Z,12.60
2019-05-07T15:20:17.766Z,10.67
2019-05-07T15:22:53.474Z,15.03
2019-05-07T15:25:23.319Z,11.40
2019-05-07T15:27:52.881Z,18.70
2019-05-07T15:30:24.008Z,15.10
2019-05-07T15:32:53.491Z,17.07
2019-05-07T15:35:23.144Z,12.00
2019-05-07T15:37:52.706Z,11.77
2019-05-07T15:40:22.665Z,13.53
2019-05-07T15:42:52.681Z,16.90
2019-05-07T15:45:22.762Z,15.57
2019-05-07T15:47:54.007Z,17.00
2019-05-07T15:50:25.523Z,18.73
2019-05-07T15:53:01.708Z,17.87
2019-05-07T15:55:31.056Z,21.60
2019-05-07T15:58:02.655Z,18.83
2019-05-07T16:00:33.487Z,17.10
2019-05-07T16:03:17.472Z,20.27
2019-05-07T16:05:46.723Z,19.17
2019-05-07T16:08:17.332Z,13.30
2019-05-07T16:10:47.930Z,13.13
2019-05-07T16:13:22.659Z,13.77
2019-05-07T16:15:52.851Z,18.33
2019-05-07T16:18:27.012Z,16.77
2019-05-07T16:20:56.316Z,16.03
2019-05-07T16:23:25.834Z,16.17
2019-05-07T16:25:58.024Z,15.07
2019-05-07T16:28:27.302Z,16.20
2019-05-07T16:30:56.569Z,15.07
2019-05-07T16:33:25.717Z,16.80
2019-05-07T16:35:55.256Z,12.97
2019-05-07T16:38:24.897Z,12.10
2019-05-07T16:40:54.267Z,12.83
2019-05-07T16:43:23.517Z,12.30
2019-05-07T16:45:52.707Z,11.03
2019-05-07T16:48:23.285Z,11.97
2019-05-07T16:50:52.657Z,10.30
2019-05-07T16:53:29.262Z,11.50
2019-05-07T16:55:52.807Z,14.50
2019-05-07T16:58:35.817Z,9.77
2019-05-07T17:01:07.901Z,13.97
2019-05-07T17:03:47.221Z,12.57
2019-05-07T17:06:16.705Z,9.83
2019-05-07T17:08:51.749Z,12.30
2019-05-07T17:11:22.637Z,15.00
2019-05-07T17:13:52.049Z,16.80
2019-05-07T17:16:22.871Z,11.47
2019-05-07T17:18:52.135Z,10.73
2019-05-07T17:21:21.862Z,11.67
2019-05-07T17:23:51.914Z,10.70
2019-05-07T17:26:23.246Z,8.80
2019-05-07T17:28:52.786Z,10.07
2019-05-07T17:31:22.982Z,15.13
2019-05-07T17:33:52.725Z,14.30
2019-05-07T17:36:22.412Z,14.60
2019-05-07T17:38:52.268Z,15.10
2019-05-07T17:41:26.818Z,12.50
2019-05-07T17:43:52.883Z,11.93
2019-05-07T17:46:22.251Z,12.50
2019-05-07T17:48:52.364Z,15.13
2019-05-07T17:51:42.081Z,15.83
2019-05-07T17:54:13.287Z,19.40
2019-05-07T17:56:42.942Z,13.23
2019-05-07T17:59:12.646Z,17.43
2019-05-07T18:02:04.446Z,13.40
2019-05-07T18:04:47.518Z,12.13
2019-05-07T18:07:07.367Z,11.20
2019-05-07T18:09:36.609Z,11.93
2019-05-07T18:12:06.159Z,13.77
2019-05-07T18:14:35.393Z,19.73
2019-05-07T18:17:23.613Z,27.47
2019-05-07T18:19:53.653Z,18.00
2019-05-07T18:22:22.931Z,14.00
2019-05-07T18:24:52.511Z,17.03
2019-05-07T18:27:24.119Z,15.27
2019-05-07T18:29:53.754Z,18.33
2019-05-07T18:32:26.903Z,14.43
2019-05-07T18:34:56.395Z,15.87
2019-05-07T18:37:25.693Z,15.80
2019-05-07T18:39:55.324Z,13.77
2019-05-07T18:42:24.619Z,11.03
2019-05-07T18:44:54.116Z,16.73
2019-05-07T18:47:23.348Z,13.97
2019-05-07T18:49:52.573Z,13.90
2019-05-07T18:52:23.014Z,13.20
2019-05-07T18:54:52.821Z,13.67
2019-05-07T18:57:22.327Z,12.53
2019-05-07T18:59:53.150Z,17.67
2019-05-07T19:02:22.757Z,15.63
2019-05-07T19:04:52.100Z,13.00
2019-05-07T19:07:23.030Z,12.73
2019-05-07T19:09:52.871Z,16.10
2019-05-07T19:12:25.335Z,17.70
2019-05-07T19:14:54.904Z,17.10
2019-05-07T19:17:25.752Z,12.87
2019-05-07T19:19:55.295Z,13.20
2019-05-07T19:22:24.573Z,16.27
2019-05-07T19:24:53.845Z,12.70
2019-05-07T19:27:23.026Z,14.10
2019-05-07T19:29:52.304Z,12.23
2019-05-07T19:32:22.904Z,15.17
2019-05-07T19:34:53.407Z,16.93
2019-05-07T19:37:23.121Z,15.73
2019-05-07T19:39:53.102Z,17.13
2019-05-07T19:42:22.869Z,16.17
2019-05-07T19:44:53.451Z,18.90
2019-05-07T19:47:23.418Z,22.40
2019-05-07T19:49:53.217Z,15.00
2019-05-07T19:52:23.273Z,17.40
2019-05-07T19:55:00.877Z,19.47
2019-05-07T19:57:28.965Z,18.77
2019-05-07T19:59:58.545Z,24.27
2019-05-07T20:02:32.443Z,21.30
2019-05-07T20:05:03.570Z,17.40
2019-05-07T20:07:32.738Z,23.57
2019-05-07T20:10:02.697Z,31.50
2019-05-07T20:12:32.740Z,20.93
2019-05-07T20:15:02.848Z,20.40
2019-05-07T20:17:33.954Z,17.47
2019-05-07T20:20:03.458Z,17.30
2019-05-07T20:22:33.368Z,18.60
2019-05-07T20:25:15.363Z,19.40
2019-05-07T20:27:33.766Z,17.10
2019-05-07T20:30:03.258Z,15.63
2019-05-07T20:32:33.118Z,18.57
2019-05-07T20:35:02.832Z,15.63
2019-05-07T20:37:32.985Z,17.77
2019-05-07T20:40:03.033Z,17.37
2019-05-07T20:42:32.911Z,16.83
2019-05-07T20:45:03.157Z,16.93
2019-05-07T20:47:32.706Z,18.00
2019-05-07T20:50:02.473Z,14.87
2019-05-07T20:52:32.526Z,16.30
2019-05-07T20:55:29.027Z,18.27
2019-05-07T20:57:51.677Z,16.77
2019-05-07T21:00:25.988Z,19.67
2019-05-07T21:03:13.240Z,20.30
2019-05-07T21:05:42.510Z,31.07
2019-05-07T21:08:12.089Z,19.17
2019-05-07T21:10:42.634Z,21.43
2019-05-07T21:13:26.809Z,22.07
2019-05-07T21:15:43.402Z,18.70
2019-05-07T21:18:13.071Z,19.50
2019-05-07T21:20:42.366Z,26.37
2019-05-07T21:23:12.357Z,27.40
2019-05-07T21:25:45.725Z,19.17
2019-05-07T21:28:13.127Z,20.10
2019-05-07T21:30:42.776Z,20.83
2019-05-07T21:33:12.448Z,21.47
2019-05-07T21:35:42.884Z,20.70
2019-05-07T21:38:12.770Z,18.37
2019-05-07T21:40:42.818Z,16.80
2019-05-07T21:43:14.153Z,16.77
2019-05-07T21:45:43.398Z,21.07
2019-05-07T21:48:13.729Z,18.90
2019-05-07T21:50:43.396Z,17.27
2019-05-07T21:53:42.847Z,18.63
2019-05-07T21:56:22.665Z,23.87
2019-05-07T21:58:57.706Z,22.13
2019-05-07T22:01:32.771Z,18.77
2019-05-07T22:04:02.236Z,19.37
2019-05-07T22:06:31.503Z,14.47
2019-05-07T22:09:01.979Z,15.17
2019-05-07T22:11:32.428Z,19.67
2019-05-07T22:14:02.307Z,17.97
2019-05-07T22:16:32.812Z,15.67
2019-05-07T22:19:02.763Z,17.80
2019-05-07T22:21:34.174Z,22.53
2019-05-07T22:24:03.353Z,19.13
2019-05-07T22:26:32.991Z,17.60
2019-05-07T22:29:03.186Z,25.13
2019-05-07T22:31:44.135Z,25.43
2019-05-07T22:34:35.921Z,26.43
2019-05-07T22:37:05.718Z,22.73
2019-05-07T22:39:35.741Z,25.23
2019-05-07T22:42:05.005Z,17.93
2019-05-07T22:44:34.273Z,19.60
2019-05-07T22:47:19.214Z,19.03
2019-05-07T22:49:53.674Z,18.43
2019-05-07T22:52:22.696Z,25.27
2019-05-07T22:54:51.907Z,17.47
2019-05-07T22:57:32.622Z,17.17
2019-05-07T23:00:04.519Z,15.77
2019-05-07T23:02:33.121Z,21.57
2019-05-07T23:05:03.032Z,16.60
2019-05-07T23:07:32.940Z,18.10
2019-05-07T23:10:02.816Z,17.63
2019-05-07T23:12:32.773Z,17.53
2019-05-07T23:15:02.692Z,18.40
2019-05-07T23:17:32.650Z,19.37
2019-05-07T23:20:02.409Z,20.07
2019-05-07T23:22:32.406Z,18.37
2019-05-07T23:25:01.826Z,17.17
2019-05-07T23:27:32.547Z,20.03
2019-05-07T23:30:02.585Z,20.80
2019-05-07T23:32:32.947Z,17.23
2019-05-07T23:35:02.431Z,16.27
2019-05-07T23:37:33.118Z,20.73
2019-05-07T23:40:07.091Z,18.97
2019-05-07T23:42:37.985Z,21.27
2019-05-07T23:45:07.328Z,17.80
2019-05-07T23:47:36.907Z,17.97
2019-05-07T23:50:06.365Z,22.17
2019-05-07T23:52:35.548Z,19.60
2019-05-07T23:55:05.551Z,19.17
2019-05-07T23:57:34.811Z,19.67
